sensor_id;sensor_type;location;lat;lon;timestamp;P1;durP1;ratioP1;P2;durP2;ratioP2
15706;SDS011;7953;54.302;10.128;2024-02-16T00:01:10;23.33;;;16.87;;
15706;SDS011;7953;54.302;10.128;2024-02-16T00:03:38;20.23;;;17.10;;
15706;SDS011;7953;54.302;10.128;2024-02-16T00:06:07;20.53;;;17.07;;
15706;SDS011;7953;54.302;10.128;2024-02-16T00:08:34;21.57;;;16.57;;
15706;SDS011;7953;54.302;10.128;2024-02-16T00:11:03;20.80;;;16.60;;
15706;SDS011;7953;54.302;10.128;2024-02-16T00:13:30;23.87;;;16.97;;
15706;SDS011;7953;54.302;10.128;2024-02-16T00:15:57;19.43;;;15.13;;
15706;SDS011;7953;54.302;10.128;2024-02-16T00:18:24;20.03;;;16.27;;
15706;SDS011;7953;54.302;10.128;2024-02-16T00:20:51;18.07;;;14.77;;
15706;SDS011;7953;54.302;10.128;2024-02-16T00:23:19;19.37;;;14.47;;
15706;SDS011;7953;54.302;10.128;2024-02-16T00:25:47;19.57;;;14.77;;
15706;SDS011;7953;54.302;10.128;2024-02-16T00:28:14;17.30;;;13.60;;
15706;SDS011;7953;54.302;10.128;2024-02-16T00:30:41;16.93;;;13.70;;
15706;SDS011;7953;54.302;10.128;2024-02-16T00:33:08;20.90;;;13.73;;
15706;SDS011;7953;54.302;10.128;2024-02-16T00:35:34;18.07;;;13.63;;
15706;SDS011;7953;54.302;10.128;2024-02-16T00:38:01;17.60;;;13.93;;
15706;SDS011;7953;54.302;10.128;2024-02-16T00:40:30;22.60;;;14.77;;
15706;SDS011;7953;54.302;10.128;2024-02-16T00:42:56;20.10;;;13.57;;
15706;SDS011;7953;54.302;10.128;2024-02-16T00:45:23;16.13;;;13.17;;
15706;SDS011;7953;54.302;10.128;2024-02-16T00:47:50;18.17;;;13.70;;
15706;SDS011;7953;54.302;10.128;2024-02-16T00:50:17;17.30;;;12.87;;
15706;SDS011;7953;54.302;10.128;2024-02-16T00:52:44;18.47;;;13.17;;
15706;SDS011;7953;54.302;10.128;2024-02-16T00:55:10;17.53;;;13.57;;
15706;SDS011;7953;54.302;10.128;2024-02-16T00:57:39;16.77;;;12.93;;
15706;SDS011;7953;54.302;10.128;2024-02-16T01:00:06;18.10;;;13.20;;
15706;SDS011;7953;54.302;10.128;2024-02-16T01:02:35;16.77;;;12.57;;
15706;SDS011;7953;54.302;10.128;2024-02-16T01:05:02;15.00;;;13.23;;
15706;SDS011;7953;54.302;10.128;2024-02-16T01:07:30;15.77;;;12.07;;
15706;SDS011;7953;54.302;10.128;2024-02-16T01:09:57;14.20;;;12.23;;
15706;SDS011;7953;54.302;10.128;2024-02-16T01:12:25;15.77;;;12.47;;
15706;SDS011;7953;54.302;10.128;2024-02-16T01:14:53;14.00;;;11.90;;
15706;SDS011;7953;54.302;10.128;2024-02-16T01:17:20;13.20;;;11.10;;
15706;SDS011;7953;54.302;10.128;2024-02-16T01:19:47;15.00;;;12.47;;
15706;SDS011;7953;54.302;10.128;2024-02-16T01:22:13;17.30;;;12.87;;
15706;SDS011;7953;54.302;10.128;2024-02-16T01:24:41;19.30;;;12.87;;
15706;SDS011;7953;54.302;10.128;2024-02-16T01:27:08;14.53;;;12.87;;
15706;SDS011;7953;54.302;10.128;2024-02-16T01:29:36;15.23;;;11.77;;
15706;SDS011;7953;54.302;10.128;2024-02-16T01:32:04;17.43;;;12.53;;
15706;SDS011;7953;54.302;10.128;2024-02-16T01:34:31;15.57;;;11.57;;
15706;SDS011;7953;54.302;10.128;2024-02-16T01:36:58;15.03;;;11.40;;
15706;SDS011;7953;54.302;10.128;2024-02-16T01:39:25;15.80;;;11.57;;
15706;SDS011;7953;54.302;10.128;2024-02-16T01:41:52;15.33;;;12.00;;
15706;SDS011;7953;54.302;10.128;2024-02-16T01:44:19;13.83;;;11.37;;
15706;SDS011;7953;54.302;10.128;2024-02-16T01:46:45;13.00;;;10.80;;
15706;SDS011;7953;54.302;10.128;2024-02-16T01:49:14;16.13;;;11.30;;
15706;SDS011;7953;54.302;10.128;2024-02-16T01:51:41;15.67;;;11.17;;
15706;SDS011;7953;54.302;10.128;2024-02-16T01:54:10;11.83;;;10.50;;
15706;SDS011;7953;54.302;10.128;2024-02-16T01:56:37;11.67;;;10.53;;
15706;SDS011;7953;54.302;10.128;2024-02-16T01:59:05;13.40;;;10.60;;
15706;SDS011;7953;54.302;10.128;2024-02-16T02:01:32;13.43;;;9.80;;
15706;SDS011;7953;54.302;10.128;2024-02-16T02:03:58;12.40;;;9.17;;
15706;SDS011;7953;54.302;10.128;2024-02-16T02:06:27;11.67;;;9.17;;
15706;SDS011;7953;54.302;10.128;2024-02-16T02:08:54;12.67;;;8.90;;
15706;SDS011;7953;54.302;10.128;2024-02-16T02:11:21;11.00;;;8.97;;
15706;SDS011;7953;54.302;10.128;2024-02-16T02:13:48;12.53;;;8.87;;
15706;SDS011;7953;54.302;10.128;2024-02-16T02:16:15;11.07;;;9.27;;
15706;SDS011;7953;54.302;10.128;2024-02-16T02:18:42;12.67;;;8.60;;
15706;SDS011;7953;54.302;10.128;2024-02-16T02:21:09;12.13;;;8.47;;
15706;SDS011;7953;54.302;10.128;2024-02-16T02:23:40;9.67;;;7.60;;
15706;SDS011;7953;54.302;10.128;2024-02-16T02:26:06;11.00;;;7.93;;
15706;SDS011;7953;54.302;10.128;2024-02-16T02:28:33;10.10;;;7.30;;
15706;SDS011;7953;54.302;10.128;2024-02-16T02:31:00;8.03;;;7.17;;
15706;SDS011;7953;54.302;10.128;2024-02-16T02:33:28;8.80;;;6.70;;
15706;SDS011;7953;54.302;10.128;2024-02-16T02:35:55;7.77;;;6.83;;
15706;SDS011;7953;54.302;10.128;2024-02-16T02:38:21;10.03;;;6.20;;
15706;SDS011;7953;54.302;10.128;2024-02-16T02:40:50;6.43;;;5.53;;
15706;SDS011;7953;54.302;10.128;2024-02-16T02:43:17;8.87;;;5.63;;
15706;SDS011;7953;54.302;10.128;2024-02-16T02:45:44;10.90;;;5.57;;
15706;SDS011;7953;54.302;10.128;2024-02-16T02:48:11;7.00;;;5.73;;
15706;SDS011;7953;54.302;10.128;2024-02-16T02:50:38;5.87;;;4.87;;
15706;SDS011;7953;54.302;10.128;2024-02-16T02:53:05;8.70;;;5.77;;
15706;SDS011;7953;54.302;10.128;2024-02-16T02:55:31;8.97;;;5.33;;
15706;SDS011;7953;54.302;10.128;2024-02-16T02:58:00;7.27;;;5.40;;
15706;SDS011;7953;54.302;10.128;2024-02-16T03:00:26;7.30;;;5.10;;
15706;SDS011;7953;54.302;10.128;2024-02-16T03:02:53;8.67;;;5.00;;
15706;SDS011;7953;54.302;10.128;2024-02-16T03:05:20;7.10;;;5.80;;
15706;SDS011;7953;54.302;10.128;2024-02-16T03:07:47;8.73;;;4.73;;
15706;SDS011;7953;54.302;10.128;2024-02-16T03:10:14;7.27;;;5.30;;
15706;SDS011;7953;54.302;10.128;2024-02-16T03:12:46;5.10;;;4.60;;
15706;SDS011;7953;54.302;10.128;2024-02-16T03:15:15;10.63;;;5.20;;
15706;SDS011;7953;54.302;10.128;2024-02-16T03:17:42;8.20;;;4.80;;
15706;SDS011;7953;54.302;10.128;2024-02-16T03:20:09;5.73;;;5.00;;
15706;SDS011;7953;54.302;10.128;2024-02-16T03:22:36;6.10;;;4.77;;
15706;SDS011;7953;54.302;10.128;2024-02-16T03:25:03;12.23;;;5.33;;
15706;SDS011;7953;54.302;10.128;2024-02-16T03:27:31;8.80;;;4.80;;
15706;SDS011;7953;54.302;10.128;2024-02-16T03:29:58;6.97;;;4.97;;
15706;SDS011;7953;54.302;10.128;2024-02-16T03:32:26;7.40;;;5.47;;
15706;SDS011;7953;54.302;10.128;2024-02-16T03:34:53;6.27;;;4.43;;
15706;SDS011;7953;54.302;10.128;2024-02-16T03:37:19;6.57;;;4.47;;
15706;SDS011;7953;54.302;10.128;2024-02-16T03:39:46;9.90;;;5.13;;
15706;SDS011;7953;54.302;10.128;2024-02-16T03:42:13;4.90;;;4.40;;
15706;SDS011;7953;54.302;10.128;2024-02-16T03:44:40;6.67;;;4.43;;
15706;SDS011;7953;54.302;10.128;2024-02-16T03:47:07;9.03;;;4.90;;
15706;SDS011;7953;54.302;10.128;2024-02-16T03:49:35;8.23;;;5.07;;
15706;SDS011;7953;54.302;10.128;2024-02-16T03:52:02;8.07;;;4.77;;
15706;SDS011;7953;54.302;10.128;2024-02-16T03:54:29;8.63;;;4.27;;
15706;SDS011;7953;54.302;10.128;2024-02-16T03:56:56;6.67;;;4.23;;
15706;SDS011;7953;54.302;10.128;2024-02-16T03:59:23;7.43;;;4.23;;
15706;SDS011;7953;54.302;10.128;2024-02-16T04:01:51;10.93;;;4.30;;
15706;SDS011;7953;54.302;10.128;2024-02-16T04:04:17;8.90;;;4.90;;
15706;SDS011;7953;54.302;10.128;2024-02-16T04:06:46;6.47;;;4.23;;
15706;SDS011;7953;54.302;10.128;2024-02-16T04:09:12;7.47;;;4.57;;
15706;SDS011;7953;54.302;10.128;2024-02-16T04:11:39;9.37;;;4.97;;
15706;SDS011;7953;54.302;10.128;2024-02-16T04:14:06;7.13;;;3.87;;
15706;SDS011;7953;54.302;10.128;2024-02-16T04:16:33;7.60;;;4.20;;
15706;SDS011;7953;54.302;10.128;2024-02-16T04:19:00;7.73;;;3.93;;
15706;SDS011;7953;54.302;10.128;2024-02-16T04:21:27;5.57;;;3.73;;
15706;SDS011;7953;54.302;10.128;2024-02-16T04:23:55;7.57;;;4.40;;
15706;SDS011;7953;54.302;10.128;2024-02-16T04:26:22;5.53;;;3.90;;
15706;SDS011;7953;54.302;10.128;2024-02-16T04:28:48;9.07;;;3.80;;
15706;SDS011;7953;54.302;10.128;2024-02-16T04:31:15;5.97;;;4.13;;
15706;SDS011;7953;54.302;10.128;2024-02-16T04:33:42;5.90;;;4.23;;
15706;SDS011;7953;54.302;10.128;2024-02-16T04:36:09;7.10;;;3.90;;
15706;SDS011;7953;54.302;10.128;2024-02-16T04:38:36;5.03;;;3.27;;
15706;SDS011;7953;54.302;10.128;2024-02-16T04:41:05;10.23;;;4.60;;
15706;SDS011;7953;54.302;10.128;2024-02-16T04:43:33;7.40;;;3.97;;
15706;SDS011;7953;54.302;10.128;2024-02-16T04:45:59;5.63;;;3.70;;
15706;SDS011;7953;54.302;10.128;2024-02-16T04:48:26;5.60;;;4.07;;
15706;SDS011;7953;54.302;10.128;2024-02-16T04:50:54;7.30;;;4.23;;
15706;SDS011;7953;54.302;10.128;2024-02-16T04:53:20;5.73;;;4.00;;
15706;SDS011;7953;54.302;10.128;2024-02-16T04:55:47;6.10;;;3.63;;
15706;SDS011;7953;54.302;10.128;2024-02-16T04:58:15;5.03;;;3.73;;
15706;SDS011;7953;54.302;10.128;2024-02-16T05:00:42;5.67;;;4.13;;
15706;SDS011;7953;54.302;10.128;2024-02-16T05:03:11;5.80;;;4.07;;
15706;SDS011;7953;54.302;10.128;2024-02-16T05:05:38;5.57;;;3.93;;
15706;SDS011;7953;54.302;10.128;2024-02-16T05:08:06;6.00;;;3.33;;
15706;SDS011;7953;54.302;10.128;2024-02-16T05:10:33;6.60;;;4.10;;
15706;SDS011;7953;54.302;10.128;2024-02-16T05:13:00;6.53;;;4.07;;
15706;SDS011;7953;54.302;10.128;2024-02-16T05:15:28;5.37;;;3.57;;
15706;SDS011;7953;54.302;10.128;2024-02-16T05:17:54;7.17;;;3.87;;
15706;SDS011;7953;54.302;10.128;2024-02-16T05:20:21;5.53;;;3.97;;
15706;SDS011;7953;54.302;10.128;2024-02-16T05:22:48;6.00;;;3.67;;
15706;SDS011;7953;54.302;10.128;2024-02-16T05:25:15;6.03;;;3.73;;
15706;SDS011;7953;54.302;10.128;2024-02-16T05:27:42;5.67;;;3.67;;
15706;SDS011;7953;54.302;10.128;2024-02-16T05:30:10;8.97;;;3.60;;
15706;SDS011;7953;54.302;10.128;2024-02-16T05:32:41;8.47;;;4.17;;
15706;SDS011;7953;54.302;10.128;2024-02-16T05:35:09;10.87;;;3.90;;
15706;SDS011;7953;54.302;10.128;2024-02-16T05:37:38;6.23;;;3.83;;
15706;SDS011;7953;54.302;10.128;2024-02-16T05:40:08;5.33;;;3.60;;
15706;SDS011;7953;54.302;10.128;2024-02-16T05:42:45;4.80;;;4.30;;
15706;SDS011;7953;54.302;10.128;2024-02-16T05:45:12;7.03;;;4.20;;
15706;SDS011;7953;54.302;10.128;2024-02-16T05:47:39;5.77;;;3.73;;
15706;SDS011;7953;54.302;10.128;2024-02-16T05:50:08;5.43;;;3.83;;
15706;SDS011;7953;54.302;10.128;2024-02-16T05:52:37;4.20;;;3.80;;
15706;SDS011;7953;54.302;10.128;2024-02-16T05:55:04;7.90;;;3.93;;
15706;SDS011;7953;54.302;10.128;2024-02-16T05:57:32;5.33;;;3.93;;
15706;SDS011;7953;54.302;10.128;2024-02-16T05:59:59;6.67;;;3.83;;
15706;SDS011;7953;54.302;10.128;2024-02-16T06:02:25;5.60;;;4.00;;
15706;SDS011;7953;54.302;10.128;2024-02-16T06:04:54;6.03;;;3.70;;
15706;SDS011;7953;54.302;10.128;2024-02-16T06:07:21;7.33;;;3.90;;
15706;SDS011;7953;54.302;10.128;2024-02-16T06:09:47;4.87;;;3.40;;
15706;SDS011;7953;54.302;10.128;2024-02-16T06:12:14;5.33;;;3.90;;
15706;SDS011;7953;54.302;10.128;2024-02-16T06:14:41;5.07;;;4.00;;
15706;SDS011;7953;54.302;10.128;2024-02-16T06:17:08;4.73;;;3.63;;
15706;SDS011;7953;54.302;10.128;2024-02-16T06:19:36;6.07;;;4.03;;
15706;SDS011;7953;54.302;10.128;2024-02-16T06:22:04;5.03;;;3.63;;
15706;SDS011;7953;54.302;10.128;2024-02-16T06:24:31;4.03;;;3.33;;
15706;SDS011;7953;54.302;10.128;2024-02-16T06:26:58;5.90;;;4.00;;
15706;SDS011;7953;54.302;10.128;2024-02-16T06:29:25;6.87;;;4.53;;
15706;SDS011;7953;54.302;10.128;2024-02-16T06:31:51;12.63;;;10.30;;
15706;SDS011;7953;54.302;10.128;2024-02-16T06:34:19;15.80;;;12.03;;
15706;SDS011;7953;54.302;10.128;2024-02-16T06:36:46;9.53;;;7.67;;
15706;SDS011;7953;54.302;10.128;2024-02-16T06:39:14;11.40;;;10.20;;
15706;SDS011;7953;54.302;10.128;2024-02-16T06:41:43;8.63;;;6.87;;
15706;SDS011;7953;54.302;10.128;2024-02-16T06:44:11;7.63;;;4.80;;
15706;SDS011;7953;54.302;10.128;2024-02-16T06:46:38;7.27;;;5.40;;
15706;SDS011;7953;54.302;10.128;2024-02-16T06:49:05;9.60;;;6.47;;
15706;SDS011;7953;54.302;10.128;2024-02-16T06:51:32;8.87;;;4.30;;
15706;SDS011;7953;54.302;10.128;2024-02-16T06:53:58;5.83;;;4.80;;
15706;SDS011;7953;54.302;10.128;2024-02-16T06:56:27;4.93;;;4.10;;
15706;SDS011;7953;54.302;10.128;2024-02-16T06:58:54;4.73;;;4.07;;
15706;SDS011;7953;54.302;10.128;2024-02-16T07:01:20;5.27;;;3.90;;
15706;SDS011;7953;54.302;10.128;2024-02-16T07:03:47;4.87;;;3.70;;
15706;SDS011;7953;54.302;10.128;2024-02-16T07:06:14;7.90;;;4.27;;
15706;SDS011;7953;54.302;10.128;2024-02-16T07:08:41;7.17;;;3.97;;
15706;SDS011;7953;54.302;10.128;2024-02-16T07:11:08;7.37;;;3.90;;
15706;SDS011;7953;54.302;10.128;2024-02-16T07:13:37;5.33;;;3.70;;
15706;SDS011;7953;54.302;10.128;2024-02-16T07:16:05;8.10;;;3.93;;
15706;SDS011;7953;54.302;10.128;2024-02-16T07:18:32;6.97;;;3.80;;
15706;SDS011;7953;54.302;10.128;2024-02-16T07:20:59;6.50;;;4.07;;
15706;SDS011;7953;54.302;10.128;2024-02-16T07:23:26;5.70;;;3.93;;
15706;SDS011;7953;54.302;10.128;2024-02-16T07:25:53;4.37;;;3.70;;
15706;SDS011;7953;54.302;10.128;2024-02-16T07:28:21;6.97;;;3.77;;
15706;SDS011;7953;54.302;10.128;2024-02-16T07:30:50;7.33;;;5.77;;
15706;SDS011;7953;54.302;10.128;2024-02-16T07:33:18;4.90;;;3.57;;
15706;SDS011;7953;54.302;10.128;2024-02-16T07:35:45;7.80;;;3.40;;
15706;SDS011;7953;54.302;10.128;2024-02-16T07:38:12;7.07;;;3.50;;
15706;SDS011;7953;54.302;10.128;2024-02-16T07:40:39;9.50;;;3.43;;
15706;SDS011;7953;54.302;10.128;2024-02-16T07:43:06;3.30;;;2.93;;
15706;SDS011;7953;54.302;10.128;2024-02-16T07:45:33;3.40;;;3.03;;
15706;SDS011;7953;54.302;10.128;2024-02-16T07:48:01;7.30;;;3.40;;
15706;SDS011;7953;54.302;10.128;2024-02-16T07:50:30;5.53;;;3.23;;
15706;SDS011;7953;54.302;10.128;2024-02-16T07:52:57;5.33;;;3.30;;
15706;SDS011;7953;54.302;10.128;2024-02-16T07:55:24;8.73;;;3.53;;
15706;SDS011;7953;54.302;10.128;2024-02-16T07:57:51;4.47;;;3.23;;
15706;SDS011;7953;54.302;10.128;2024-02-16T08:00:18;5.10;;;3.87;;
15706;SDS011;7953;54.302;10.128;2024-02-16T08:02:45;4.10;;;3.50;;
15706;SDS011;7953;54.302;10.128;2024-02-16T08:05:13;8.23;;;3.13;;
15706;SDS011;7953;54.302;10.128;2024-02-16T08:07:44;4.40;;;2.73;;
15706;SDS011;7953;54.302;10.128;2024-02-16T08:10:12;5.57;;;2.97;;
15706;SDS011;7953;54.302;10.128;2024-02-16T08:12:39;4.50;;;2.73;;
15706;SDS011;7953;54.302;10.128;2024-02-16T08:15:06;4.87;;;2.70;;
15706;SDS011;7953;54.302;10.128;2024-02-16T08:17:33;4.13;;;2.87;;
15706;SDS011;7953;54.302;10.128;2024-02-16T08:20:00;4.57;;;3.20;;
15706;SDS011;7953;54.302;10.128;2024-02-16T08:22:29;5.20;;;2.90;;
15706;SDS011;7953;54.302;10.128;2024-02-16T08:24:57;5.23;;;3.07;;
15706;SDS011;7953;54.302;10.128;2024-02-16T08:27:24;7.30;;;3.00;;
15706;SDS011;7953;54.302;10.128;2024-02-16T08:29:51;6.43;;;2.93;;
15706;SDS011;7953;54.302;10.128;2024-02-16T08:32:18;6.30;;;3.40;;
15706;SDS011;7953;54.302;10.128;2024-02-16T08:34:45;3.37;;;3.03;;
15706;SDS011;7953;54.302;10.128;2024-02-16T08:37:13;4.43;;;3.00;;
15706;SDS011;7953;54.302;10.128;2024-02-16T08:39:41;7.30;;;3.47;;
15706;SDS011;7953;54.302;10.128;2024-02-16T08:42:08;4.23;;;3.53;;
15706;SDS011;7953;54.302;10.128;2024-02-16T08:44:36;5.47;;;2.77;;
15706;SDS011;7953;54.302;10.128;2024-02-16T08:47:04;6.40;;;2.77;;
15706;SDS011;7953;54.302;10.128;2024-02-16T08:49:31;3.67;;;2.73;;
15706;SDS011;7953;54.302;10.128;2024-02-16T08:51:58;6.73;;;3.40;;
15706;SDS011;7953;54.302;10.128;2024-02-16T08:54:24;6.67;;;4.10;;
15706;SDS011;7953;54.302;10.128;2024-02-16T08:56:53;8.27;;;3.70;;
15706;SDS011;7953;54.302;10.128;2024-02-16T08:59:20;4.90;;;2.90;;
15706;SDS011;7953;54.302;10.128;2024-02-16T09:01:47;4.63;;;3.00;;
15706;SDS011;7953;54.302;10.128;2024-02-16T09:04:14;3.70;;;2.77;;
15706;SDS011;7953;54.302;10.128;2024-02-16T09:06:41;4.47;;;2.67;;
15706;SDS011;7953;54.302;10.128;2024-02-16T09:09:08;3.63;;;2.67;;
15706;SDS011;7953;54.302;10.128;2024-02-16T09:11:35;3.53;;;2.47;;
15706;SDS011;7953;54.302;10.128;2024-02-16T09:14:04;5.47;;;2.43;;
15706;SDS011;7953;54.302;10.128;2024-02-16T09:16:30;2.93;;;2.20;;
15706;SDS011;7953;54.302;10.128;2024-02-16T09:18:57;4.33;;;2.60;;
15706;SDS011;7953;54.302;10.128;2024-02-16T09:21:25;3.70;;;2.83;;
15706;SDS011;7953;54.302;10.128;2024-02-16T09:23:54;4.60;;;2.87;;
15706;SDS011;7953;54.302;10.128;2024-02-16T09:26:23;5.43;;;2.73;;
15706;SDS011;7953;54.302;10.128;2024-02-16T09:28:55;2.60;;;2.40;;
15706;SDS011;7953;54.302;10.128;2024-02-16T09:31:25;3.70;;;2.20;;
15706;SDS011;7953;54.302;10.128;2024-02-16T09:33:52;6.83;;;3.10;;
15706;SDS011;7953;54.302;10.128;2024-02-16T09:36:18;2.70;;;2.17;;
15706;SDS011;7953;54.302;10.128;2024-02-16T09:38:45;4.47;;;2.10;;
15706;SDS011;7953;54.302;10.128;2024-02-16T09:41:12;2.87;;;2.53;;
15706;SDS011;7953;54.302;10.128;2024-02-16T09:43:41;7.53;;;2.47;;
15706;SDS011;7953;54.302;10.128;2024-02-16T09:46:08;4.37;;;2.97;;
15706;SDS011;7953;54.302;10.128;2024-02-16T09:48:36;3.97;;;2.60;;
15706;SDS011;7953;54.302;10.128;2024-02-16T09:51:08;3.23;;;2.37;;
15706;SDS011;7953;54.302;10.128;2024-02-16T09:53:36;5.30;;;2.93;;
15706;SDS011;7953;54.302;10.128;2024-02-16T09:56:04;7.83;;;2.50;;
15706;SDS011;7953;54.302;10.128;2024-02-16T09:58:33;3.03;;;2.37;;
15706;SDS011;7953;54.302;10.128;2024-02-16T10:01:00;4.27;;;2.33;;
15706;SDS011;7953;54.302;10.128;2024-02-16T10:03:28;4.73;;;2.23;;
15706;SDS011;7953;54.302;10.128;2024-02-16T10:06:05;4.40;;;2.70;;
15706;SDS011;7953;54.302;10.128;2024-02-16T10:08:32;2.50;;;2.23;;
15706;SDS011;7953;54.302;10.128;2024-02-16T10:11:00;4.70;;;2.83;;
15706;SDS011;7953;54.302;10.128;2024-02-16T10:13:28;4.70;;;2.27;;
15706;SDS011;7953;54.302;10.128;2024-02-16T10:16:03;6.13;;;2.70;;
15706;SDS011;7953;54.302;10.128;2024-02-16T10:18:33;6.60;;;2.43;;
15706;SDS011;7953;54.302;10.128;2024-02-16T10:21:00;6.03;;;3.43;;
15706;SDS011;7953;54.302;10.128;2024-02-16T10:23:28;4.90;;;2.83;;
15706;SDS011;7953;54.302;10.128;2024-02-16T10:25:55;3.20;;;2.47;;
15706;SDS011;7953;54.302;10.128;2024-02-16T10:28:24;3.70;;;2.07;;
15706;SDS011;7953;54.302;10.128;2024-02-16T10:30:57;7.43;;;2.27;;
15706;SDS011;7953;54.302;10.128;2024-02-16T10:33:26;6.93;;;2.10;;
15706;SDS011;7953;54.302;10.128;2024-02-16T10:35:54;6.53;;;2.53;;
15706;SDS011;7953;54.302;10.128;2024-02-16T10:38:23;5.43;;;2.37;;
15706;SDS011;7953;54.302;10.128;2024-02-16T10:40:52;3.90;;;2.40;;
15706;SDS011;7953;54.302;10.128;2024-02-16T10:43:20;5.60;;;2.40;;
15706;SDS011;7953;54.302;10.128;2024-02-16T10:45:47;3.87;;;2.53;;
15706;SDS011;7953;54.302;10.128;2024-02-16T10:48:18;3.07;;;2.07;;
15706;SDS011;7953;54.302;10.128;2024-02-16T10:50:45;2.37;;;1.97;;
15706;SDS011;7953;54.302;10.128;2024-02-16T10:53:17;7.50;;;2.73;;
15706;SDS011;7953;54.302;10.128;2024-02-16T10:55:49;3.23;;;2.53;;
15706;SDS011;7953;54.302;10.128;2024-02-16T10:58:18;5.70;;;2.53;;
15706;SDS011;7953;54.302;10.128;2024-02-16T11:00:51;2.70;;;2.03;;
15706;SDS011;7953;54.302;10.128;2024-02-16T11:03:21;6.40;;;2.90;;
15706;SDS011;7953;54.302;10.128;2024-02-16T11:05:50;4.27;;;2.83;;
15706;SDS011;7953;54.302;10.128;2024-02-16T11:08:17;3.07;;;2.50;;
15706;SDS011;7953;54.302;10.128;2024-02-16T11:10:55;4.30;;;2.63;;
15706;SDS011;7953;54.302;10.128;2024-02-16T11:13:24;6.00;;;3.33;;
15706;SDS011;7953;54.302;10.128;2024-02-16T11:15:58;5.63;;;3.30;;
15706;SDS011;7953;54.302;10.128;2024-02-16T11:18:26;5.90;;;3.23;;
15706;SDS011;7953;54.302;10.128;2024-02-16T11:20:53;6.40;;;3.63;;
15706;SDS011;7953;54.302;10.128;2024-02-16T11:23:24;6.67;;;3.83;;
15706;SDS011;7953;54.302;10.128;2024-02-16T11:25:53;5.40;;;3.10;;
15706;SDS011;7953;54.302;10.128;2024-02-16T11:28:20;4.90;;;3.53;;
15706;SDS011;7953;54.302;10.128;2024-02-16T11:30:48;6.30;;;3.10;;
15706;SDS011;7953;54.302;10.128;2024-02-16T11:33:16;4.57;;;3.17;;
15706;SDS011;7953;54.302;10.128;2024-02-16T11:35:51;7.17;;;3.70;;
15706;SDS011;7953;54.302;10.128;2024-02-16T11:38:19;4.07;;;2.53;;
15706;SDS011;7953;54.302;10.128;2024-02-16T11:40:52;9.23;;;3.60;;
15706;SDS011;7953;54.302;10.128;2024-02-16T11:43:22;3.23;;;2.57;;
15706;SDS011;7953;54.302;10.128;2024-02-16T11:45:51;4.57;;;2.43;;
15706;SDS011;7953;54.302;10.128;2024-02-16T11:48:19;3.63;;;2.20;;
15706;SDS011;7953;54.302;10.128;2024-02-16T11:50:47;3.80;;;3.03;;
15706;SDS011;7953;54.302;10.128;2024-02-16T11:53:15;5.37;;;3.00;;
15706;SDS011;7953;54.302;10.128;2024-02-16T11:55:48;6.03;;;3.87;;
15706;SDS011;7953;54.302;10.128;2024-02-16T11:58:16;3.93;;;2.97;;
15706;SDS011;7953;54.302;10.128;2024-02-16T12:00:44;3.67;;;2.50;;
15706;SDS011;7953;54.302;10.128;2024-02-16T12:03:12;5.30;;;2.97;;
15706;SDS011;7953;54.302;10.128;2024-02-16T12:05:49;3.63;;;3.10;;
15706;SDS011;7953;54.302;10.128;2024-02-16T12:08:16;5.17;;;2.97;;
15706;SDS011;7953;54.302;10.128;2024-02-16T12:10:43;3.37;;;2.57;;
15706;SDS011;7953;54.302;10.128;2024-02-16T12:13:10;4.70;;;3.60;;
15706;SDS011;7953;54.302;10.128;2024-02-16T12:15:37;4.57;;;2.87;;
15706;SDS011;7953;54.302;10.128;2024-02-16T12:18:04;7.00;;;3.20;;
15706;SDS011;7953;54.302;10.128;2024-02-16T12:20:33;3.87;;;2.70;;
15706;SDS011;7953;54.302;10.128;2024-02-16T12:23:00;4.50;;;3.13;;
15706;SDS011;7953;54.302;10.128;2024-02-16T12:25:37;5.37;;;4.03;;
15706;SDS011;7953;54.302;10.128;2024-02-16T12:28:04;7.50;;;3.40;;
15706;SDS011;7953;54.302;10.128;2024-02-16T12:30:33;7.37;;;3.93;;
15706;SDS011;7953;54.302;10.128;2024-02-16T12:33:00;7.27;;;4.40;;
15706;SDS011;7953;54.302;10.128;2024-02-16T12:35:27;5.87;;;4.50;;
15706;SDS011;7953;54.302;10.128;2024-02-16T12:37:56;6.43;;;4.53;;
15706;SDS011;7953;54.302;10.128;2024-02-16T12:40:22;6.50;;;3.90;;
15706;SDS011;7953;54.302;10.128;2024-02-16T12:42:49;7.13;;;6.50;;
15706;SDS011;7953;54.302;10.128;2024-02-16T12:45:16;5.63;;;4.00;;
15706;SDS011;7953;54.302;10.128;2024-02-16T12:47:43;5.37;;;3.80;;
15706;SDS011;7953;54.302;10.128;2024-02-16T12:50:11;3.87;;;3.57;;
15706;SDS011;7953;54.302;10.128;2024-02-16T12:52:37;5.63;;;4.40;;
15706;SDS011;7953;54.302;10.128;2024-02-16T12:55:06;5.47;;;3.97;;
15706;SDS011;7953;54.302;10.128;2024-02-16T12:57:35;3.40;;;3.10;;
15706;SDS011;7953;54.302;10.128;2024-02-16T13:00:03;6.77;;;4.03;;
15706;SDS011;7953;54.302;10.128;2024-02-16T13:02:30;5.13;;;3.47;;
15706;SDS011;7953;54.302;10.128;2024-02-16T13:04:57;6.93;;;4.03;;
15706;SDS011;7953;54.302;10.128;2024-02-16T13:07:24;7.47;;;4.33;;
15706;SDS011;7953;54.302;10.128;2024-02-16T13:09:51;7.00;;;3.17;;
15706;SDS011;7953;54.302;10.128;2024-02-16T13:12:20;4.00;;;3.60;;
15706;SDS011;7953;54.302;10.128;2024-02-16T13:14:48;4.40;;;3.63;;
15706;SDS011;7953;54.302;10.128;2024-02-16T13:17:15;6.83;;;4.87;;
15706;SDS011;7953;54.302;10.128;2024-02-16T13:19:43;4.50;;;4.10;;
15706;SDS011;7953;54.302;10.128;2024-02-16T13:22:10;8.93;;;5.93;;
15706;SDS011;7953;54.302;10.128;2024-02-16T13:24:36;5.33;;;3.80;;
15706;SDS011;7953;54.302;10.128;2024-02-16T13:27:03;5.83;;;3.93;;
15706;SDS011;7953;54.302;10.128;2024-02-16T13:29:32;9.23;;;5.23;;
15706;SDS011;7953;54.302;10.128;2024-02-16T13:31:59;6.30;;;4.70;;
15706;SDS011;7953;54.302;10.128;2024-02-16T13:34:26;8.83;;;6.40;;
15706;SDS011;7953;54.302;10.128;2024-02-16T13:36:53;10.47;;;6.17;;
15706;SDS011;7953;54.302;10.128;2024-02-16T13:39:20;5.73;;;4.37;;
15706;SDS011;7953;54.302;10.128;2024-02-16T13:41:47;5.80;;;4.90;;
15706;SDS011;7953;54.302;10.128;2024-02-16T13:44:16;9.23;;;5.87;;
15706;SDS011;7953;54.302;10.128;2024-02-16T13:46:45;5.53;;;4.90;;
15706;SDS011;7953;54.302;10.128;2024-02-16T13:49:13;7.73;;;5.67;;
15706;SDS011;7953;54.302;10.128;2024-02-16T13:51:40;6.60;;;5.37;;
15706;SDS011;7953;54.302;10.128;2024-02-16T13:54:07;9.07;;;5.67;;
15706;SDS011;7953;54.302;10.128;2024-02-16T13:56:34;9.53;;;6.23;;
15706;SDS011;7953;54.302;10.128;2024-02-16T13:59:03;6.10;;;5.10;;
15706;SDS011;7953;54.302;10.128;2024-02-16T14:01:32;7.17;;;4.73;;
15706;SDS011;7953;54.302;10.128;2024-02-16T14:04:01;6.10;;;4.70;;
15706;SDS011;7953;54.302;10.128;2024-02-16T14:06:28;6.93;;;5.40;;
15706;SDS011;7953;54.302;10.128;2024-02-16T14:08:56;11.37;;;6.37;;
15706;SDS011;7953;54.302;10.128;2024-02-16T14:11:23;8.90;;;5.97;;
15706;SDS011;7953;54.302;10.128;2024-02-16T14:13:49;9.27;;;5.53;;
15706;SDS011;7953;54.302;10.128;2024-02-16T14:16:16;12.83;;;7.73;;
15706;SDS011;7953;54.302;10.128;2024-02-16T14:18:44;12.00;;;7.47;;
15706;SDS011;7953;54.302;10.128;2024-02-16T14:21:14;13.07;;;8.80;;
15706;SDS011;7953;54.302;10.128;2024-02-16T14:23:41;8.90;;;6.23;;
15706;SDS011;7953;54.302;10.128;2024-02-16T14:26:08;11.13;;;5.60;;
15706;SDS011;7953;54.302;10.128;2024-02-16T14:28:36;9.87;;;7.00;;
15706;SDS011;7953;54.302;10.128;2024-02-16T14:31:03;10.10;;;5.43;;
15706;SDS011;7953;54.302;10.128;2024-02-16T14:33:31;7.03;;;5.20;;
15706;SDS011;7953;54.302;10.128;2024-02-16T14:35:59;9.17;;;6.63;;
15706;SDS011;7953;54.302;10.128;2024-02-16T14:38:28;13.47;;;7.27;;
15706;SDS011;7953;54.302;10.128;2024-02-16T14:40:55;7.63;;;6.53;;
15706;SDS011;7953;54.302;10.128;2024-02-16T14:43:23;10.60;;;8.00;;
15706;SDS011;7953;54.302;10.128;2024-02-16T14:45:50;11.77;;;7.67;;